createdAt,value
2022-10-21T00:01:40.661Z,34.97
2022-10-21T00:04:09.641Z,36.50
2022-10-21T00:06:38.040Z,36.75
2022-10-21T00:09:06.784Z,27.23
2022-10-21T00:11:35.372Z,30.60
2022-10-21T00:14:05.535Z,49.05
2022-10-21T00:16:34.037Z,35.30
2022-10-21T00:19:02.360Z,33.40
2022-10-21T00:21:30.798Z,35.90
2022-10-21T00:23:59.291Z,32.80
2022-10-21T00:26:27.540Z,42.65
2022-10-21T00:28:57.735Z,27.83
2022-10-21T00:31:29.006Z,37.75
2022-10-21T00:33:57.875Z,42.72
2022-10-21T00:36:26.835Z,33.30
2022-10-21T00:38:55.339Z,37.10
2022-10-21T00:41:24.267Z,31.85
2022-10-21T00:43:59.498Z,31.90
2022-10-21T00:46:41.684Z,39.25
2022-10-21T00:49:20.914Z,48.65
2022-10-21T00:51:53.823Z,41.00
2022-10-21T00:54:24.881Z,34.00
2022-10-21T00:56:56.823Z,37.00
2022-10-21T00:59:28.146Z,48.47
2022-10-21T01:01:58.675Z,47.22
2022-10-21T01:04:27.770Z,35.13
2022-10-21T01:06:56.983Z,44.10
2022-10-21T01:09:26.426Z,42.97
2022-10-21T01:11:55.785Z,43.92
2022-10-21T01:14:44.816Z,41.65
2022-10-21T01:17:40.634Z,37.63
2022-10-21T01:20:40.899Z,28.83
2022-10-21T01:23:44.221Z,44.72
2022-10-21T01:26:47.832Z,31.58
2022-10-21T01:29:48.555Z,42.00
2022-10-21T01:32:27.864Z,35.15
2022-10-21T01:35:04.584Z,34.78
2022-10-21T01:37:41.738Z,40.78
2022-10-21T01:40:16.212Z,31.98
2022-10-21T01:42:53.913Z,37.40
2022-10-21T01:45:30.603Z,35.65
2022-10-21T01:48:04.868Z,36.90
2022-10-21T01:50:40.322Z,35.90
2022-10-21T01:53:13.489Z,36.58
2022-10-21T01:55:43.491Z,31.35
2022-10-21T01:58:17.638Z,38.40
2022-10-21T02:00:47.910Z,37.13
2022-10-21T02:03:22.487Z,36.63
2022-10-21T02:05:51.483Z,31.23
2022-10-21T02:08:20.696Z,40.92
2022-10-21T02:10:52.348Z,40.22
2022-10-21T02:13:26.767Z,36.22
2022-10-21T02:15:58.485Z,33.45
2022-10-21T02:18:28.449Z,34.08
2022-10-21T02:21:01.215Z,41.97
2022-10-21T02:23:37.565Z,34.38
2022-10-21T02:26:06.362Z,39.72
2022-10-21T02:28:35.373Z,24.38
2022-10-21T02:31:17.202Z,26.17
2022-10-21T02:33:57.932Z,38.85
2022-10-21T02:36:38.297Z,30.05
2022-10-21T02:39:15.365Z,32.47
2022-10-21T02:41:46.405Z,35.40
2022-10-21T02:44:15.300Z,36.15
2022-10-21T02:46:45.733Z,26.77
2022-10-21T02:49:16.229Z,27.77
2022-10-21T02:51:45.244Z,27.23
2022-10-21T02:54:14.147Z,25.88
2022-10-21T02:56:42.769Z,25.83
2022-10-21T02:59:11.570Z,26.73
2022-10-21T03:01:40.374Z,30.92
2022-10-21T03:04:08.740Z,28.60
2022-10-21T03:06:38.602Z,29.38
2022-10-21T03:09:07.188Z,24.17
2022-10-21T03:11:35.590Z,26.00
2022-10-21T03:14:04.205Z,26.63
2022-10-21T03:16:32.720Z,23.50
2022-10-21T03:19:01.480Z,26.00
2022-10-21T03:21:30.227Z,26.33
2022-10-21T03:24:00.415Z,22.52
2022-10-21T03:26:29.278Z,24.42
2022-10-21T03:29:01.887Z,26.27
2022-10-21T03:31:30.433Z,19.55
2022-10-21T03:33:58.711Z,17.42
2022-10-21T03:36:27.419Z,27.45
2022-10-21T03:38:55.964Z,21.15
2022-10-21T03:41:26.359Z,23.67
2022-10-21T03:43:55.036Z,24.10
2022-10-21T03:46:23.424Z,23.20
2022-10-21T03:48:52.045Z,34.92
2022-10-21T03:51:20.858Z,25.13
2022-10-21T03:53:50.155Z,27.67
2022-10-21T03:56:18.649Z,27.02
2022-10-21T03:58:49.841Z,19.63
2022-10-21T04:01:18.384Z,20.88
2022-10-21T04:03:47.021Z,20.92
2022-10-21T04:06:15.636Z,20.20
2022-10-21T04:08:44.058Z,24.77
2022-10-21T04:11:13.033Z,23.27
2022-10-21T04:13:41.554Z,21.88
2022-10-21T04:16:16.970Z,23.67
2022-10-21T04:18:45.822Z,29.13
2022-10-21T04:21:14.959Z,23.90
2022-10-21T04:23:44.174Z,23.63
2022-10-21T04:26:13.344Z,24.30
2022-10-21T04:28:41.711Z,28.02
2022-10-21T04:31:12.409Z,23.30
2022-10-21T04:33:41.142Z,27.10
2022-10-21T04:36:10.204Z,24.35
2022-10-21T04:38:39.807Z,21.67
2022-10-21T04:41:08.313Z,22.60
2022-10-21T04:43:39.436Z,22.50
2022-10-21T04:46:29.389Z,19.30
2022-10-21T04:49:11.599Z,20.10
2022-10-21T04:52:00.288Z,22.52
2022-10-21T04:54:40.396Z,23.08
2022-10-21T04:57:33.576Z,31.45
2022-10-21T05:00:14.742Z,23.83
2022-10-21T05:02:44.643Z,18.98
2022-10-21T05:05:13.006Z,24.30
2022-10-21T05:07:41.989Z,23.23
2022-10-21T05:10:11.705Z,29.40
2022-10-21T05:12:40.011Z,30.60
2022-10-21T05:15:10.188Z,28.70
2022-10-21T05:17:39.026Z,31.08
2022-10-21T05:20:11.247Z,34.65
2022-10-21T05:22:41.178Z,30.67
2022-10-21T05:25:10.781Z,26.08
2022-10-21T05:27:39.759Z,37.63
2022-10-21T05:30:09.881Z,26.60
2022-10-21T05:32:38.418Z,43.38
2022-10-21T05:35:09.501Z,43.42
2022-10-21T05:37:37.812Z,43.38
2022-10-21T05:40:08.858Z,51.53
2022-10-21T05:42:37.649Z,48.53
2022-10-21T05:45:07.854Z,41.53
2022-10-21T05:47:36.473Z,45.60
2022-10-21T05:50:06.012Z,48.33
2022-10-21T05:52:36.005Z,36.33
2022-10-21T05:55:04.837Z,39.33
2022-10-21T05:57:33.769Z,36.35
2022-10-21T06:00:02.416Z,38.03
2022-10-21T06:02:31.864Z,37.97
2022-10-21T06:05:00.479Z,33.90
2022-10-21T06:07:29.771Z,27.92
2022-10-21T06:09:59.842Z,35.25
2022-10-21T06:12:28.304Z,40.35
2022-10-21T06:14:56.778Z,36.80
2022-10-21T06:17:25.294Z,31.42
2022-10-21T06:19:54.061Z,25.65
2022-10-21T06:22:22.719Z,32.55
2022-10-21T06:24:51.365Z,27.35
2022-10-21T06:27:21.721Z,24.92
2022-10-21T06:29:50.027Z,28.55
2022-10-21T06:32:18.327Z,24.27
2022-10-21T06:34:46.868Z,21.70
2022-10-21T06:37:15.151Z,31.55
2022-10-21T06:39:43.549Z,26.42
2022-10-21T06:42:15.540Z,28.15
2022-10-21T06:44:57.975Z,32.25
2022-10-21T06:47:42.237Z,22.52
2022-10-21T06:50:22.683Z,33.22
2022-10-21T06:53:02.910Z,39.08
2022-10-21T06:55:41.840Z,38.45
2022-10-21T06:58:19.009Z,30.38
2022-10-21T07:00:49.126Z,45.20
2022-10-21T07:03:34.613Z,40.20
2022-10-21T07:06:15.372Z,32.92
2022-10-21T07:08:59.674Z,40.15
2022-10-21T07:11:45.373Z,43.45
2022-10-21T07:14:25.237Z,37.30
2022-10-21T07:17:15.288Z,44.95
2022-10-21T07:19:45.949Z,37.45
2022-10-21T07:22:15.444Z,48.00
2022-10-21T07:24:49.227Z,33.45
2022-10-21T07:27:17.808Z,38.35
2022-10-21T07:29:52.200Z,42.72
2022-10-21T07:32:22.280Z,39.25
2022-10-21T07:34:53.021Z,40.90
2022-10-21T07:37:21.672Z,38.65
2022-10-21T07:39:50.267Z,36.95
2022-10-21T07:42:18.660Z,33.80
2022-10-21T07:44:48.071Z,33.55
2022-10-21T07:47:17.549Z,30.77
2022-10-21T07:49:47.245Z,34.65
2022-10-21T07:54:48.916Z,37.22
2022-10-21T07:57:18.162Z,39.15
2022-10-21T07:59:46.863Z,32.67
2022-10-21T08:02:15.838Z,32.38
2022-10-21T08:04:44.645Z,40.42
2022-10-21T08:07:14.472Z,30.95
2022-10-21T08:09:42.809Z,31.95
2022-10-21T08:12:14.470Z,40.78
2022-10-21T08:14:45.582Z,50.30
2022-10-21T08:17:13.864Z,40.58
2022-10-21T08:19:42.261Z,41.28
2022-10-21T08:22:10.828Z,39.95
2022-10-21T08:24:42.358Z,38.78
2022-10-21T08:27:10.928Z,42.08
2022-10-21T08:29:40.147Z,38.05
2022-10-21T08:32:08.714Z,48.42
2022-10-21T08:34:38.413Z,45.05
2022-10-21T08:37:07.071Z,44.60
2022-10-21T08:39:35.613Z,40.80
2022-10-21T08:42:12.448Z,43.42
2022-10-21T08:44:45.865Z,42.40
2022-10-21T08:47:26.160Z,47.15
2022-10-21T08:50:03.408Z,46.63
2022-10-21T08:52:40.910Z,55.53
2022-10-21T08:55:17.676Z,40.05
2022-10-21T08:57:48.853Z,47.92
2022-10-21T09:00:25.164Z,49.67
2022-10-21T09:03:09.500Z,50.22
2022-10-21T09:06:00.881Z,56.60
2022-10-21T09:08:39.289Z,60.20
2022-10-21T09:11:20.203Z,53.10
2022-10-21T09:14:14.377Z,41.88
2022-10-21T09:16:55.762Z,56.83
2022-10-21T09:19:36.437Z,49.88
2022-10-21T09:22:35.529Z,58.40
2022-10-21T09:25:19.440Z,56.63
2022-10-21T09:27:55.980Z,54.25
2022-10-21T09:30:29.019Z,59.53
2022-10-21T09:33:01.607Z,54.25
2022-10-21T09:35:38.448Z,49.97
2022-10-21T09:38:19.754Z,36.83
2022-10-21T09:41:06.196Z,46.67
2022-10-21T09:43:34.750Z,52.85
2022-10-21T09:46:05.579Z,44.08
2022-10-21T09:49:14.027Z,45.97
2022-10-21T09:51:35.593Z,39.38
2022-10-21T09:54:09.887Z,43.25
2022-10-21T09:56:44.774Z,28.52
2022-10-21T09:59:16.652Z,34.58
2022-10-21T10:01:49.553Z,40.40
2022-10-21T10:04:24.435Z,44.10
2022-10-21T10:06:53.464Z,42.63
2022-10-21T10:09:28.838Z,47.08
2022-10-21T10:12:02.634Z,37.20
2022-10-21T10:14:34.410Z,37.85
2022-10-21T10:17:29.500Z,41.63
2022-10-21T10:20:17.882Z,38.45
2022-10-21T10:22:48.664Z,38.92
2022-10-21T10:25:25.912Z,40.40
2022-10-21T10:27:57.811Z,44.38
2022-10-21T10:30:37.023Z,34.53
2022-10-21T10:33:15.932Z,36.03
2022-10-21T10:35:50.262Z,26.42
2022-10-21T10:38:25.339Z,22.83
2022-10-21T10:40:57.834Z,25.17
2022-10-21T10:43:31.679Z,26.85
2022-10-21T10:46:02.847Z,19.63
2022-10-21T10:48:39.027Z,15.63
2022-10-21T10:51:26.418Z,17.65
2022-10-21T10:54:19.307Z,16.58
2022-10-21T10:56:54.077Z,25.75
2022-10-21T10:59:33.986Z,30.23
2022-10-21T11:02:20.649Z,38.33
2022-10-21T11:05:08.524Z,40.17
2022-10-21T11:07:45.437Z,34.65
2022-10-21T11:10:27.922Z,37.38
2022-10-21T11:12:57.961Z,35.58
2022-10-21T11:15:34.457Z,34.88
2022-10-21T11:18:30.174Z,37.50
2022-10-21T11:21:09.075Z,24.35
2022-10-21T11:24:13.733Z,19.23
2022-10-21T11:26:51.918Z,19.77
2022-10-21T11:29:35.894Z,18.60
2022-10-21T11:32:19.448Z,20.17
2022-10-21T11:35:01.801Z,23.38
2022-10-21T11:37:46.766Z,17.50
2022-10-21T11:40:27.977Z,23.60
2022-10-21T11:42:58.667Z,24.98
2022-10-21T11:45:42.301Z,17.27
2022-10-21T11:48:21.185Z,21.45
2022-10-21T11:51:03.739Z,20.20
2022-10-21T11:53:50.453Z,21.85
2022-10-21T11:56:30.954Z,17.88
2022-10-21T11:59:13.001Z,27.08
2022-10-21T12:01:49.865Z,21.83
2022-10-21T12:04:26.590Z,25.95
2022-10-21T12:07:11.207Z,18.70
2022-10-21T12:09:51.504Z,28.80
2022-10-21T12:12:24.212Z,23.83
2022-10-21T12:14:57.810Z,24.10
2022-10-21T12:17:27.167Z,29.17
2022-10-21T12:20:01.876Z,25.92
2022-10-21T12:22:34.173Z,27.98
2022-10-21T12:25:15.117Z,29.90
2022-10-21T12:27:46.718Z,28.30
2022-10-21T12:30:24.839Z,24.55
2022-10-21T12:33:15.355Z,20.60
2022-10-21T12:35:50.293Z,25.05
2022-10-21T12:38:26.761Z,26.50
2022-10-21T12:41:28.647Z,24.17
2022-10-21T12:44:05.456Z,22.00
2022-10-21T12:46:40.233Z,23.02
2022-10-21T12:49:23.018Z,25.95
2022-10-21T12:51:56.101Z,22.30
2022-10-21T12:54:30.501Z,26.05
2022-10-21T12:57:06.745Z,18.88
2022-10-21T12:59:37.888Z,24.52
2022-10-21T13:02:28.411Z,23.30
2022-10-21T13:04:59.300Z,22.25
2022-10-21T13:07:40.689Z,28.17
2022-10-21T13:10:36.096Z,22.58
2022-10-21T13:13:31.279Z,32.30
2022-10-21T13:16:01.869Z,35.30
2022-10-21T13:18:56.723Z,30.92
2022-10-21T13:21:37.342Z,29.20
2022-10-21T13:24:17.955Z,32.03
2022-10-21T13:26:51.639Z,40.03
2022-10-21T13:29:28.519Z,36.17
2022-10-21T13:32:24.718Z,33.60
2022-10-21T13:35:01.022Z,36.85
2022-10-21T13:37:35.205Z,42.20
2022-10-21T13:40:07.950Z,35.70
2022-10-21T13:42:40.536Z,36.00
2022-10-21T13:45:25.834Z,40.92
2022-10-21T13:48:15.041Z,43.35
2022-10-21T13:50:46.751Z,44.25
2022-10-21T13:53:36.105Z,38.15
2022-10-21T13:56:07.479Z,45.53
2022-10-21T13:58:40.423Z,43.00
2022-10-21T14:01:13.042Z,39.70
2022-10-21T14:03:42.683Z,41.05
2022-10-21T14:06:13.489Z,50.63
2022-10-21T14:08:45.476Z,43.75
2022-10-21T14:11:19.344Z,40.00
2022-10-21T14:13:51.063Z,47.05
2022-10-21T14:16:31.895Z,45.53
2022-10-21T14:19:16.389Z,47.47
2022-10-21T14:21:52.867Z,44.40
2022-10-21T14:24:29.705Z,45.78
2022-10-21T14:27:02.695Z,47.88
2022-10-21T14:29:34.545Z,44.10
2022-10-21T14:32:08.376Z,47.75
2022-10-21T14:35:06.041Z,46.47
2022-10-21T14:37:45.592Z,43.08
2022-10-21T14:40:24.310Z,41.65
2022-10-21T14:42:53.486Z,42.33
2022-10-21T14:45:27.931Z,41.25
2022-10-21T14:48:10.407Z,41.78
2022-10-21T14:50:44.321Z,37.90
2022-10-21T14:53:18.035Z,36.80
2022-10-21T14:55:49.008Z,34.13
2022-10-21T14:58:24.069Z,34.95
2022-10-21T15:00:57.682Z,47.53
2022-10-21T15:03:42.067Z,38.33
2022-10-21T15:06:14.111Z,39.83
2022-10-21T15:08:45.066Z,38.45
2022-10-21T15:11:36.525Z,41.17
2022-10-21T15:14:28.805Z,33.78
2022-10-21T15:16:59.683Z,32.47
2022-10-21T15:19:35.812Z,37.75
2022-10-21T15:22:06.347Z,33.10
2022-10-21T15:24:44.028Z,35.90
2022-10-21T15:27:19.645Z,41.50
2022-10-21T15:29:50.149Z,36.50
2022-10-21T15:32:25.613Z,34.92
2022-10-21T15:35:03.024Z,30.08
2022-10-21T15:37:32.973Z,42.20
2022-10-21T15:40:01.575Z,38.33
2022-10-21T15:42:30.482Z,38.67
2022-10-21T15:44:59.354Z,38.83
2022-10-21T15:47:29.390Z,47.40
2022-10-21T15:49:57.920Z,40.35
2022-10-21T15:52:28.749Z,34.95
2022-10-21T15:54:59.358Z,46.83
2022-10-21T15:57:28.923Z,42.92
2022-10-21T15:59:57.631Z,43.00
2022-10-21T16:02:27.510Z,45.97
2022-10-21T16:04:56.048Z,50.15
2022-10-21T16:07:34.724Z,52.75
2022-10-21T16:10:03.919Z,50.15
2022-10-21T16:12:32.333Z,53.78
2022-10-21T16:15:01.289Z,60.47
2022-10-21T16:17:30.964Z,59.00
2022-10-21T16:19:59.649Z,54.05
2022-10-21T16:22:31.313Z,56.47
2022-10-21T16:25:01.227Z,60.17
2022-10-21T16:27:43.926Z,62.97
2022-10-21T16:30:22.345Z,65.25
2022-10-21T16:32:51.516Z,61.63
2022-10-21T16:35:21.934Z,64.68
2022-10-21T16:37:52.735Z,77.60
2022-10-21T16:40:24.863Z,75.55
2022-10-21T16:42:54.168Z,70.35
2022-10-21T16:45:25.559Z,77.13
2022-10-21T16:47:58.560Z,76.75
2022-10-21T16:50:42.363Z,71.65
2022-10-21T16:53:15.699Z,71.13
2022-10-21T16:55:46.644Z,79.18
2022-10-21T16:58:15.398Z,68.43
2022-10-21T17:00:45.111Z,71.20
2022-10-21T17:03:13.865Z,82.20
2022-10-21T17:05:46.428Z,68.93
2022-10-21T17:08:14.899Z,72.85
2022-10-21T17:10:46.835Z,69.28
2022-10-21T17:13:16.592Z,75.95
2022-10-21T17:15:45.388Z,67.15
2022-10-21T17:18:15.701Z,78.97
2022-10-21T17:20:45.085Z,75.40
2022-10-21T17:23:13.516Z,73.05
2022-10-21T17:25:42.025Z,68.60
2022-10-21T17:28:11.796Z,62.28
2022-10-21T17:30:42.878Z,72.85
2022-10-21T17:33:14.214Z,61.13
2022-10-21T17:35:43.145Z,69.53
2022-10-21T17:38:11.520Z,72.55
2022-10-21T17:40:40.343Z,80.00
2022-10-21T17:43:08.779Z,63.60
2022-10-21T17:45:39.180Z,77.53
2022-10-21T17:48:07.932Z,73.03
2022-10-21T17:50:38.714Z,78.80
2022-10-21T17:53:08.447Z,86.70
2022-10-21T17:55:36.966Z,74.60
2022-10-21T17:58:06.686Z,76.45
2022-10-21T18:00:34.985Z,73.40
2022-10-21T18:03:04.727Z,86.55
2022-10-21T18:05:33.938Z,77.22
2022-10-21T18:08:03.314Z,77.18
2022-10-21T18:10:31.887Z,74.57
2022-10-21T18:13:00.811Z,78.05
2022-10-21T18:15:29.551Z,71.50
2022-10-21T18:17:57.912Z,71.65
2022-10-21T18:20:28.033Z,82.63
2022-10-21T18:23:35.315Z,70.65
2022-10-21T18:26:08.154Z,81.82
2022-10-21T18:28:43.245Z,65.40
2022-10-21T18:31:15.713Z,71.28
2022-10-21T18:33:46.893Z,78.10
2022-10-21T18:36:19.322Z,64.07
2022-10-21T18:38:49.962Z,70.72
2022-10-21T18:41:26.797Z,77.72
2022-10-21T18:44:02.017Z,58.15
2022-10-21T18:46:33.910Z,56.38
2022-10-21T18:49:05.452Z,54.35
2022-10-21T18:51:35.962Z,45.03
2022-10-21T18:54:07.818Z,43.92
2022-10-21T18:56:38.508Z,43.28
2022-10-21T18:59:10.928Z,39.88
2022-10-21T19:01:42.844Z,32.80
2022-10-21T19:06:46.301Z,48.95
2022-10-21T19:09:19.728Z,48.70
2022-10-21T19:11:49.383Z,44.35
2022-10-21T19:14:20.575Z,47.80
2022-10-21T19:16:51.827Z,49.13
2022-10-21T19:19:22.146Z,62.85
2022-10-21T19:21:51.945Z,67.05
2022-10-21T19:24:21.345Z,58.75
2022-10-21T19:26:55.025Z,56.83
2022-10-21T19:29:27.392Z,62.22
2022-10-21T19:31:58.150Z,62.65
2022-10-21T19:34:52.296Z,58.60
2022-10-21T19:37:24.897Z,62.20
2022-10-21T19:39:53.377Z,68.72
2022-10-21T19:42:25.177Z,64.38
2022-10-21T19:44:59.357Z,72.45
2022-10-21T19:47:32.397Z,69.93
2022-10-21T19:50:16.424Z,67.22
2022-10-21T19:52:50.899Z,65.28
2022-10-21T19:55:22.466Z,74.07
2022-10-21T19:57:54.535Z,68.90
2022-10-21T20:00:25.253Z,65.63
2022-10-21T20:02:54.821Z,73.82
2022-10-21T20:05:35.411Z,74.50
2022-10-21T20:08:08.101Z,69.55
2022-10-21T20:10:40.432Z,102.07
2022-10-21T20:13:10.677Z,64.57
2022-10-21T20:15:48.100Z,66.72
2022-10-21T20:18:19.674Z,71.82
2022-10-21T20:20:50.270Z,83.00
2022-10-21T20:23:21.358Z,64.28
2022-10-21T20:25:54.832Z,75.53
2022-10-21T20:28:31.563Z,71.43
2022-10-21T20:31:01.821Z,77.20
2022-10-21T20:33:35.801Z,72.32
2022-10-21T20:36:08.101Z,82.55
2022-10-21T20:38:38.020Z,61.45
2022-10-21T20:41:08.533Z,67.30
2022-10-21T20:43:39.216Z,76.43
2022-10-21T20:46:11.654Z,63.83
2022-10-21T20:48:42.813Z,63.25
2022-10-21T20:51:13.137Z,72.15
2022-10-21T20:56:21.876Z,61.20
2022-10-21T20:58:51.081Z,62.22
2022-10-21T21:01:22.373Z,64.78
2022-10-21T21:03:51.882Z,54.70
2022-10-21T21:06:22.202Z,61.90
2022-10-21T21:09:15.132Z,60.88
2022-10-21T21:11:43.821Z,61.42
2022-10-21T21:14:15.307Z,71.05
2022-10-21T21:16:44.029Z,67.28
2022-10-21T21:19:13.994Z,62.28
2022-10-21T21:21:44.101Z,67.65
2022-10-21T21:24:15.696Z,61.05
2022-10-21T21:26:44.301Z,57.05
2022-10-21T21:29:15.590Z,60.13
2022-10-21T21:31:50.432Z,59.85
2022-10-21T21:34:21.486Z,67.60
2022-10-21T21:36:50.060Z,71.53
2022-10-21T21:39:20.802Z,59.97
2022-10-21T21:41:49.830Z,62.15
2022-10-21T21:44:18.549Z,65.28
2022-10-21T21:46:47.312Z,63.70
2022-10-21T21:49:16.345Z,72.18
2022-10-21T21:51:55.103Z,64.32
2022-10-21T21:54:25.163Z,65.40
2022-10-21T21:56:57.377Z,70.03
2022-10-21T21:59:43.560Z,74.68
2022-10-21T22:02:12.365Z,68.47
2022-10-21T22:04:42.393Z,74.38
2022-10-21T22:07:11.115Z,74.20
2022-10-21T22:09:42.491Z,62.75
2022-10-21T22:12:15.028Z,73.78
2022-10-21T22:14:44.128Z,75.18
2022-10-21T22:17:12.901Z,77.28
2022-10-21T22:19:43.625Z,72.80
2022-10-21T22:22:13.367Z,78.18
2022-10-21T22:24:43.709Z,67.82
2022-10-21T22:27:12.784Z,83.53
2022-10-21T22:29:41.729Z,68.80
2022-10-21T22:32:18.835Z,73.43
2022-10-21T22:34:49.797Z,66.75
2022-10-21T22:37:18.642Z,70.82
2022-10-21T22:39:50.362Z,83.47
2022-10-21T22:42:19.250Z,61.75
2022-10-21T22:44:49.029Z,59.13
2022-10-21T22:47:18.707Z,70.10
2022-10-21T22:49:47.129Z,62.00
2022-10-21T22:52:18.469Z,60.92
2022-10-21T22:54:49.798Z,67.80
2022-10-21T22:57:23.505Z,69.78
2022-10-21T22:59:55.370Z,76.03
2022-10-21T23:02:24.536Z,74.22
2022-10-21T23:04:53.071Z,47.08
2022-10-21T23:07:21.654Z,37.97
2022-10-21T23:09:51.639Z,39.58
2022-10-21T23:12:29.341Z,32.33
2022-10-21T23:14:57.793Z,38.50
2022-10-21T23:17:26.637Z,32.72
2022-10-21T23:20:02.772Z,28.85
2022-10-21T23:22:34.278Z,38.20
2022-10-21T23:25:03.259Z,26.00
2022-10-21T23:27:33.293Z,26.75
2022-10-21T23:30:03.260Z,22.08
2022-10-21T23:32:33.299Z,21.20
2022-10-21T23:35:01.983Z,15.68
2022-10-21T23:37:30.795Z,13.88
2022-10-21T23:40:00.567Z,13.45
2022-10-21T23:42:29.129Z,10.43
2022-10-21T23:44:59.385Z,10.98
2022-10-21T23:47:28.329Z,11.35
2022-10-21T23:49:59.110Z,13.05
2022-10-21T23:52:30.037Z,8.35
2022-10-21T23:54:58.350Z,9.50
2022-10-21T23:57:27.947Z,12.73
2022-10-21T23:59:56.858Z,10.00
